Hlavní strana
METAR-TAF:

METAR-TAF

Letiště :

Faro, Yukon, Kanada

zeměpisná šířka: 62-12N, zeměpisná délka: 133-22W, výška: 717 m

Aktuální stav počasí

Zpráva byla vytvořena před 6 hodinami a 53 minutami, v 23:00 UTC
Severozápadní vítr 6 kt
Teplota -11°C
Vlhkost vzduchu 85%
Tlak 1027 hPa
Viditelnost: 48.3 km
Zataženo ve výšce 4400 ft
slabé sněžení

METAR: CZFA 152300Z 31006KT 30SM -SN OVC044 M11/M13 A3032 RMK SC8 CLIMAT -10.3/-11.1/0.6CM/0.2MWE LAST STFD OBS/NXT 161500UTC SLP331

Čas: 21:53 (05:53 UTC)

Předpověď počasí

Zpráva byla vytvořena před 11 hodinami a 49 minutami, v 18:04 UTC
Předpověď platná od 15 v 18 UTC do 15 v 23 UTC
Severozápadní vítr 5 kt
Viditelnost: 10 km
Zataženo ve výšce 5000 ft
Dočasný
od 15 v 18 UTC do 15 v 23 UTC
Viditelnost: 3.2 km
Zataženo ve výšce 2000 ft
slabé sněžení

TAF: CZFA 151804Z 1518/1523 31005KT P6SM OVC050 TEMPO 1518/1523 2SM -SN OVC020 RMK NXT FCST WILL BE ISSUED AT 161645Z

Stav a předpovědi počasí z více než 4 000 letišť (zprávy METAR a TAF).

Červené a žluté tečky na mapě představují dostupné meteorologické stanice.

Když kurzor umístíte na tečku, zobrazí se název stanice.

Pak kliknutím zobrazíte stav a předpověď počasí.

Chcete-li změnit mapu, kliknutím na zelené tlačítko se znaménkem +mapu přiblížíte, kliknutím na zelené tlačítko se znaménkem – mapu oddálíte a kliknutím na zelené šipky přejdete na sousední mapy.


METAR-TAF: